Time;durP1;ratioP1;P1;durP2;ratioP2;P2;SDS_P1;SDS_P2;PMS_P1;PMS_P2;Temp;Humidity;BMP_temperature;BMP_pressure;BME280_temperature;BME280_humidity;BME280_pressure;Samples;Min_cycle;Max_cycle;Signal;HPM_P1;HPM_P2
2021/05/27 00:00:58;;;;;;;3.92;2.55;;;7.90;99.90;;;;;;5011478;28;20056;-68
2021/05/27 00:03:23;;;;;;;3.05;2.40;;;7.90;99.90;;;;;;5014996;28;20088;-68
2021/05/27 00:05:49;;;;;;;4.20;2.65;;;7.90;99.90;;;;;;5015099;28;20129;-68
2021/05/27 00:08:15;;;;;;;2.90;2.58;;;7.90;99.90;;;;;;5014803;28;20028;-67
2021/05/27 00:10:40;;;;;;;6.10;2.28;;;7.90;99.90;;;;;;5014958;28;20022;-69
2021/05/27 00:13:06;;;;;;;5.47;2.85;;;7.90;99.90;;;;;;5014981;28;20033;-68
2021/05/27 00:15:32;;;;;;;6.70;2.60;;;7.80;99.90;;;;;;5014881;28;20051;-68
2021/05/27 00:17:58;;;;;;;6.18;2.47;;;7.80;99.90;;;;;;5014887;28;20442;-68
2021/05/27 00:20:24;;;;;;;3.92;2.65;;;7.80;99.90;;;;;;5014742;28;20034;-68
2021/05/27 00:22:50;;;;;;;3.38;2.28;;;7.80;99.90;;;;;;5014638;28;20117;-68
2021/05/27 00:25:17;;;;;;;6.13;2.70;;;7.80;99.90;;;;;;5014839;28;20113;-68
2021/05/27 00:27:46;;;;;;;3.65;1.98;;;7.80;99.90;;;;;;5014665;28;20030;-68
2021/05/27 00:30:14;;;;;;;4.63;2.40;;;7.70;99.90;;;;;;5014605;28;20520;-68
2021/05/27 00:32:40;;;;;;;6.70;2.38;;;7.80;99.90;;;;;;5014535;28;20109;-69
2021/05/27 00:35:07;;;;;;;2.78;2.13;;;7.70;99.90;;;;;;5014672;28;20057;-68
2021/05/27 00:37:33;;;;;;;2.92;2.28;;;7.70;99.90;;;;;;5014073;28;20092;-68
2021/05/27 00:39:58;;;;;;;3.08;2.35;;;7.70;99.90;;;;;;5014256;28;20068;-68
2021/05/27 00:42:24;;;;;;;6.13;2.13;;;7.70;99.90;;;;;;5014348;28;20034;-68
2021/05/27 00:45:01;;;;;;;2.47;1.90;;;7.70;99.90;;;;;;5014325;28;20490;-68
2021/05/27 00:47:27;;;;;;;6.00;2.08;;;7.70;99.90;;;;;;5014548;28;20041;-68
2021/05/27 00:49:52;;;;;;;4.22;1.98;;;7.70;99.90;;;;;;5014158;28;20030;-68
2021/05/27 00:52:18;;;;;;;2.85;1.88;;;7.70;99.90;;;;;;5013927;28;20022;-69
2021/05/27 00:54:45;;;;;;;2.85;2.17;;;7.60;99.90;;;;;;5014372;28;20026;-68
2021/05/27 00:57:44;;;;;;;3.53;2.55;;;7.60;99.90;;;;;;5014120;28;20040;-69
2021/05/27 01:00:14;;;;;;;2.92;2.10;;;7.60;99.90;;;;;;4996906;28;20378;-68
2021/05/27 01:02:40;;;;;;;5.95;2.05;;;7.60;99.90;;;;;;5014095;28;20022;-68
2021/05/27 01:05:11;;;;;;;4.53;2.10;;;7.60;99.90;;;;;;5013904;28;20493;-68
2021/05/27 01:07:37;;;;;;;6.45;1.80;;;7.60;99.90;;;;;;5014020;28;20381;-68
2021/05/27 01:10:09;;;;;;;4.68;1.88;;;7.60;99.90;;;;;;5013742;28;20036;-68
2021/05/27 01:12:35;;;;;;;6.68;2.05;;;7.60;99.90;;;;;;5014012;28;20030;-68
2021/05/27 01:17:46;;;;;;;2.90;2.10;;;7.60;99.90;;;;;;5014143;28;20062;-68
2021/05/27 01:20:13;;;;;;;3.28;1.95;;;7.60;99.90;;;;;;5013449;28;20038;-68
2021/05/27 01:22:39;;;;;;;2.83;1.85;;;7.60;99.90;;;;;;5013922;28;20056;-68
2021/05/27 01:25:07;;;;;;;3.50;2.08;;;7.60;99.90;;;;;;4995938;28;20025;-67
2021/05/27 01:27:33;;;;;;;4.55;1.77;;;7.60;99.90;;;;;;5013423;28;20029;-67
2021/05/27 01:29:59;;;;;;;4.18;1.90;;;7.60;99.90;;;;;;5013373;28;20026;-67
2021/05/27 01:32:25;;;;;;;2.97;1.65;;;7.60;99.90;;;;;;5013686;28;20030;-67
2021/05/27 01:34:51;;;;;;;2.83;1.40;;;7.60;99.90;;;;;;5013504;28;20385;-67
2021/05/27 01:37:17;;;;;;;4.75;1.85;;;7.60;99.90;;;;;;5012893;28;20046;-68
2021/05/27 01:40:18;;;;;;;3.60;1.63;;;7.60;99.90;;;;;;5013472;28;20040;-67
2021/05/27 01:42:44;;;;;;;2.65;1.70;;;7.60;99.90;;;;;;5013322;28;20033;-68
2021/05/27 01:45:11;;;;;;;1.95;1.48;;;7.60;99.90;;;;;;5013073;28;20648;-68
2021/05/27 01:47:36;;;;;;;3.25;1.48;;;7.60;99.90;;;;;;5013053;28;20037;-68
2021/05/27 01:50:04;;;;;;;2.83;1.55;;;7.60;99.90;;;;;;5013063;28;20029;-68
2021/05/27 01:52:29;;;;;;;4.05;2.45;;;7.60;99.90;;;;;;5013267;28;20038;-68
2021/05/27 01:54:55;;;;;;;3.45;1.48;;;7.60;99.90;;;;;;5012988;28;20033;-68
2021/05/27 01:57:21;;;;;;;3.65;1.90;;;7.60;99.90;;;;;;5013056;28;20030;-69
2021/05/27 01:59:47;;;;;;;4.65;1.58;;;7.60;99.90;;;;;;5013216;28;20388;-68
2021/05/27 02:02:13;;;;;;;1.50;1.23;;;7.60;99.90;;;;;;5012708;28;20033;-69
2021/05/27 02:04:38;;;;;;;3.55;1.20;;;7.60;99.90;;;;;;5012899;28;20046;-69
2021/05/27 02:07:12;;;;;;;3.58;1.50;;;7.70;99.90;;;;;;5012909;28;20033;-69
2021/05/27 02:09:38;;;;;;;1.98;1.40;;;7.70;99.90;;;;;;5012923;28;20101;-69
2021/05/27 02:12:04;;;;;;;1.30;1.20;;;7.70;99.90;;;;;;5012813;28;20453;-70
2021/05/27 02:14:30;;;;;;;2.55;1.40;;;7.70;99.90;;;;;;5012959;28;20036;-69
2021/05/27 02:16:56;;;;;;;2.63;1.42;;;7.70;99.90;;;;;;5012534;28;20029;-69
2021/05/27 02:19:22;;;;;;;2.80;1.50;;;7.70;99.90;;;;;;5012490;28;20030;-69
2021/05/27 02:21:48;;;;;;;3.10;1.75;;;7.70;99.90;;;;;;5012578;28;20030;-69
2021/05/27 02:24:13;;;;;;;3.38;1.80;;;7.70;99.90;;;;;;5012029;28;20022;-68
2021/05/27 02:26:39;;;;;;;2.70;1.88;;;7.70;99.90;;;;;;5012810;28;20389;-68
2021/05/27 02:29:05;;;;;;;3.05;2.10;;;7.70;99.90;;;;;;5012435;28;20123;-68
2021/05/27 02:31:32;;;;;;;3.58;1.20;;;7.70;99.90;;;;;;5012613;28;20584;-68
2021/05/27 02:33:58;;;;;;;2.90;1.52;;;7.70;99.90;;;;;;5012823;28;20030;-68
2021/05/27 02:36:25;;;;;;;2.95;1.67;;;7.70;99.90;;;;;;5012274;28;20072;-68
2021/05/27 02:38:51;;;;;;;3.38;1.30;;;7.60;99.90;;;;;;5012394;28;20417;-67
2021/05/27 02:41:17;;;;;;;4.32;1.50;;;7.60;99.90;;;;;;5012584;28;20056;-67
2021/05/27 02:43:43;;;;;;;3.30;1.63;;;7.60;99.90;;;;;;5012335;28;20061;-67
2021/05/27 02:46:09;;;;;;;2.28;1.40;;;7.60;99.90;;;;;;5012439;28;20095;-67
2021/05/27 02:48:35;;;;;;;3.78;1.63;;;7.60;99.90;;;;;;5012456;28;20363;-68
2021/05/27 02:51:02;;;;;;;5.20;1.50;;;7.60;99.90;;;;;;5012334;28;20473;-66
2021/05/27 02:53:28;;;;;;;4.25;1.20;;;7.60;99.90;;;;;;5012272;28;20022;-67
2021/05/27 02:55:54;;;;;;;1.75;1.30;;;7.60;99.90;;;;;;5012389;28;20109;-67
2021/05/27 02:58:19;;;;;;;3.55;1.20;;;7.60;99.90;;;;;;5012239;28;20650;-67
2021/05/27 03:00:46;;;;;;;3.10;1.38;;;7.60;99.90;;;;;;5012296;28;20060;-67
2021/05/27 03:03:13;;;;;;;4.28;1.20;;;7.60;99.90;;;;;;5012254;28;20065;-67
2021/05/27 03:05:38;;;;;;;1.55;1.17;;;7.60;99.90;;;;;;5012043;28;20482;-67
2021/05/27 03:08:04;;;;;;;3.15;1.25;;;7.60;99.90;;;;;;5011980;28;20034;-67
2021/05/27 03:10:30;;;;;;;2.78;1.00;;;7.60;99.90;;;;;;5012020;28;20069;-67
2021/05/27 03:12:56;;;;;;;3.13;1.27;;;7.60;99.20;;;;;;5012229;28;20030;-67
2021/05/27 03:15:22;;;;;;;1.83;1.10;;;7.60;96.70;;;;;;5011937;28;20045;-67
2021/05/27 03:17:47;;;;;;;2.13;1.00;;;7.60;96.40;;;;;;5011931;28;20029;-66
2021/05/27 03:20:13;;;;;;;2.85;1.10;;;7.60;95.90;;;;;;5011746;28;20034;-66
2021/05/27 03:22:39;;;;;;;2.70;0.90;;;7.60;95.30;;;;;;5012160;28;20022;-67
2021/05/27 03:25:07;;;;;;;3.92;1.30;;;7.70;95.10;;;;;;5012133;28;20030;-67
2021/05/27 03:27:34;;;;;;;3.33;1.00;;;7.70;94.10;;;;;;4994300;28;20022;-67
2021/05/27 03:30:00;;;;;;;2.35;1.20;;;7.70;93.80;;;;;;5011926;28;20062;-67
2021/05/27 03:32:27;;;;;;;4.95;1.17;;;7.70;93.70;;;;;;5011620;28;20026;-67
2021/05/27 03:34:52;;;;;;;1.40;0.95;;;7.70;93.10;;;;;;5012127;28;20119;-67
2021/05/27 03:37:18;;;;;;;1.45;1.23;;;7.80;93.20;;;;;;5013337;28;20521;-67
2021/05/27 03:40:10;;;;;;;2.33;1.15;;;7.80;92.30;;;;;;5015420;28;20073;-67
2021/05/27 03:42:30;;;;;;;1.95;1.30;;;7.80;92.60;;;;;;5015275;28;20120;-66
2021/05/27 03:44:55;;;;;;;1.17;1.05;;;7.80;92.80;;;;;;5015421;28;20253;-67
2021/05/27 03:47:21;;;;;;;2.10;1.27;;;7.80;93.20;;;;;;5015461;28;20030;-67
2021/05/27 03:49:47;;;;;;;2.38;0.82;;;7.90;92.70;;;;;;5015524;28;20112;-67
2021/05/27 03:52:12;;;;;;;1.33;0.80;;;7.90;91.90;;;;;;5015185;28;20030;-67
2021/05/27 03:54:38;;;;;;;4.15;0.90;;;8.00;91.50;;;;;;5015388;28;20036;-67
2021/05/27 03:57:04;;;;;;;2.20;1.00;;;8.00;90.80;;;;;;5015155;28;20052;-67
2021/05/27 04:02:14;;;;;;;1.77;0.90;;;8.40;89.20;;;;;;5015200;28;20041;-67
2021/05/27 04:07:26;;;;;;;1.30;1.00;;;9.10;82.30;;;;;;5015144;28;20044;-66
2021/05/27 04:09:52;;;;;;;2.05;1.00;;;9.80;78.90;;;;;;5015412;28;20425;-66
2021/05/27 04:15:21;;;;;;;0.90;0.80;;;10.10;70.50;;;;;;5014929;28;20076;-67
2021/05/27 04:18:11;;;;;;;1.85;0.95;;;10.10;69.40;;;;;;5015090;28;20049;-67
2021/05/27 04:20:48;;;;;;;1.30;1.02;;;10.30;69.40;;;;;;5015119;28;20030;-67
2021/05/27 04:23:37;;;;;;;6.38;1.27;;;10.30;69.60;;;;;;5014882;28;20402;-67
2021/05/27 04:26:08;;;;;;;0.85;0.68;;;10.30;69.40;;;;;;5015024;28;20370;-67
2021/05/27 04:28:36;;;;;;;1.15;0.80;;;10.40;68.70;;;;;;5014699;28;20481;-66
2021/05/27 04:31:08;;;;;;;0.90;0.63;;;10.60;68.60;;;;;;5014919;28;20394;-69
2021/05/27 04:33:37;;;;;;;3.40;1.00;;;10.70;67.20;;;;;;5014504;28;20038;-72
2021/05/27 04:36:04;;;;;;;7.35;1.00;;;11.00;68.60;;;;;;5014239;28;20042;-73
2021/05/27 04:38:30;;;;;;;2.03;0.77;;;11.30;71.90;;;;;;5014238;28;20141;-75
2021/05/27 04:40:55;;;;;;;4.35;0.95;;;12.00;68.40;;;;;;5014402;28;20113;-75
2021/05/27 04:43:22;;;;;;;2.25;1.20;;;12.50;75.20;;;;;;5013920;28;20104;-71
2021/05/27 04:45:48;;;;;;;1.05;0.60;;;13.50;77.20;;;;;;5014521;28;20032;-70
2021/05/27 04:48:15;;;;;;;3.47;1.10;;;12.80;63.40;;;;;;5013527;28;20409;-67
2021/05/27 04:50:42;;;;;;;0.70;0.70;;;12.00;62.70;;;;;;5014156;28;20037;-69
2021/05/27 04:53:09;;;;;;;2.22;0.85;;;11.70;64.70;;;;;;5013976;28;20024;-68
2021/05/27 04:55:36;;;;;;;2.58;0.80;;;11.90;64.50;;;;;;5014254;28;20401;-68
2021/05/27 04:58:03;;;;;;;1.52;0.85;;;12.30;65.90;;;;;;5014216;28;20021;-71
2021/05/27 05:00:29;;;;;;;1.38;0.73;;;12.30;62.30;;;;;;5014023;28;20041;-71
2021/05/27 05:02:56;;;;;;;5.38;0.93;;;12.10;62.80;;;;;;5013830;28;20029;-71
2021/05/27 05:05:23;;;;;;;0.80;0.68;;;11.70;63.00;;;;;;5014063;28;20112;-71
2021/05/27 05:07:49;;;;;;;6.97;0.90;;;11.50;64.20;;;;;;5013932;28;20558;-71
2021/05/27 05:10:17;;;;;;;5.05;1.00;;;11.60;63.20;;;;;;5014116;28;20033;-72
2021/05/27 05:12:46;;;;;;;2.80;0.95;;;11.50;63.30;;;;;;5014138;28;20025;-72
2021/05/27 05:15:17;;;;;;;3.42;0.80;;;11.60;62.00;;;;;;4996117;28;20057;-71
2021/05/27 05:17:51;;;;;;;1.60;0.70;;;11.70;62.50;;;;;;5014001;28;20029;-72
2021/05/27 05:20:19;;;;;;;3.13;1.27;;;12.10;61.90;;;;;;5013706;28;20038;-72
2021/05/27 05:22:44;;;;;;;1.30;0.70;;;12.30;62.20;;;;;;4996667;28;20022;-72
2021/05/27 05:25:11;;;;;;;2.83;0.70;;;12.70;59.50;;;;;;5013580;28;20428;-72
2021/05/27 05:27:37;;;;;;;1.08;0.80;;;13.10;56.80;;;;;;5013492;28;20026;-71
2021/05/27 05:30:04;;;;;;;2.55;0.73;;;13.30;56.00;;;;;;5013389;28;20034;-72
2021/05/27 05:32:30;;;;;;;0.90;0.70;;;13.70;56.40;;;;;;5013327;28;20394;-71
2021/05/27 05:34:56;;;;;;;1.30;0.68;;;14.10;56.30;;;;;;5013772;28;20025;-71
2021/05/27 05:37:22;;;;;;;2.08;0.90;;;14.10;54.60;;;;;;5013030;28;20050;-71
2021/05/27 05:39:47;;;;;;;1.60;1.02;;;14.30;54.00;;;;;;5013371;28;20148;-71
2021/05/27 05:42:13;;;;;;;1.25;0.70;;;14.30;53.50;;;;;;5013430;28;20091;-72
2021/05/27 05:44:39;;;;;;;1.52;0.70;;;13.90;53.50;;;;;;5013613;28;20051;-71
2021/05/27 05:47:05;;;;;;;1.55;0.82;;;14.20;54.00;;;;;;5013153;28;20029;-72
2021/05/27 05:49:30;;;;;;;4.78;0.90;;;14.60;53.40;;;;;;5013263;28;20022;-72
2021/05/27 05:51:56;;;;;;;3.00;0.80;;;14.90;52.90;;;;;;5013415;28;20029;-72
2021/05/27 05:54:22;;;;;;;1.38;0.90;;;14.90;51.30;;;;;;5013137;28;20394;-72
2021/05/27 05:56:48;;;;;;;4.40;0.82;;;14.70;51.90;;;;;;5013260;28;20422;-72
2021/05/27 05:59:13;;;;;;;4.07;0.90;;;15.00;52.90;;;;;;5011913;28;20631;-70
2021/05/27 06:01:39;;;;;;;5.30;0.93;;;14.70;52.90;;;;;;5013073;28;20026;-71
2021/05/27 06:04:05;;;;;;;4.10;1.23;;;14.10;54.10;;;;;;5012712;28;20496;-72
2021/05/27 06:06:31;;;;;;;2.13;0.95;;;13.50;54.70;;;;;;4995072;28;20049;-72
2021/05/27 06:08:57;;;;;;;4.93;0.75;;;12.90;56.50;;;;;;5012738;28;20145;-71
2021/05/27 06:11:23;;;;;;;2.08;0.85;;;12.60;57.20;;;;;;5012678;28;20030;-71
2021/05/27 06:13:49;;;;;;;2.00;0.70;;;13.00;57.70;;;;;;5012653;28;20068;-71
2021/05/27 06:16:15;;;;;;;2.22;0.77;;;13.50;56.90;;;;;;5012811;28;20053;-71
2021/05/27 06:18:41;;;;;;;1.48;0.68;;;14.00;55.80;;;;;;5012890;28;20385;-71
2021/05/27 06:21:07;;;;;;;3.13;0.70;;;14.00;54.90;;;;;;5012617;28;20037;-71
2021/05/27 06:23:32;;;;;;;1.20;0.60;;;13.80;55.00;;;;;;5012343;28;20105;-71
2021/05/27 06:25:58;;;;;;;5.65;0.90;;;13.90;55.80;;;;;;5012572;28;20029;-71
2021/05/27 06:28:24;;;;;;;2.80;0.90;;;13.90;54.70;;;;;;5012334;28;20026;-72
2021/05/27 06:30:50;;;;;;;2.38;1.00;;;12.90;55.00;;;;;;5012751;28;20018;-71
2021/05/27 06:33:16;;;;;;;3.70;0.70;;;12.50;56.50;;;;;;5012292;28;20034;-71
2021/05/27 06:35:41;;;;;;;0.82;0.60;;;12.40;58.10;;;;;;5012125;28;20022;-71
2021/05/27 06:38:09;;;;;;;1.25;0.73;;;12.80;56.50;;;;;;5012358;28;20037;-72
2021/05/27 06:40:35;;;;;;;5.68;0.93;;;13.00;56.60;;;;;;5012218;28;20034;-71
2021/05/27 06:43:00;;;;;;;3.65;0.85;;;12.30;55.70;;;;;;5012201;28;20025;-71
2021/05/27 06:45:26;;;;;;;1.15;0.75;;;12.30;57.20;;;;;;5012324;28;20212;-71
2021/05/27 06:47:55;;;;;;;2.72;0.80;;;12.20;56.80;;;;;;5012276;28;20466;-72
2021/05/27 06:50:35;;;;;;;1.95;0.60;;;12.10;57.60;;;;;;5011930;28;20030;-69
2021/05/27 06:53:10;;;;;;;3.17;0.70;;;12.30;56.50;;;;;;5012444;28;20429;-71
2021/05/27 06:55:38;;;;;;;2.58;0.63;;;12.10;56.80;;;;;;5011994;28;20082;-71
2021/05/27 06:58:04;;;;;;;1.10;0.80;;;12.40;56.40;;;;;;5012043;28;20731;-70
2021/05/27 07:00:30;;;;;;;13.32;1.20;;;12.50;56.60;;;;;;5012303;28;20117;-68
2021/05/27 07:02:57;;;;;;;1.65;0.80;;;12.50;56.30;;;;;;5012150;28;20489;-72
2021/05/27 07:05:24;;;;;;;1.05;0.70;;;12.50;57.10;;;;;;5012083;28;20037;-71
2021/05/27 07:07:50;;;;;;;4.72;0.90;;;12.10;56.80;;;;;;5012044;28;20113;-71
2021/05/27 07:10:18;;;;;;;2.60;0.68;;;11.70;56.90;;;;;;5012345;28;20073;-72
2021/05/27 07:12:47;;;;;;;3.28;0.82;;;11.60;58.20;;;;;;5016466;28;20037;-70
2021/05/27 07:15:14;;;;;;;1.13;0.50;;;11.30;57.50;;;;;;4998442;28;20032;-71
2021/05/27 07:17:40;;;;;;;3.13;0.85;;;11.30;57.50;;;;;;4998228;28;20022;-69
2021/05/27 07:20:07;;;;;;;1.40;0.82;;;11.10;57.30;;;;;;5015909;28;20117;-72
2021/05/27 07:22:32;;;;;;;3.00;0.80;;;10.80;58.90;;;;;;5015880;28;20030;-72
2021/05/27 07:24:58;;;;;;;1.85;0.80;;;10.90;59.60;;;;;;4996142;28;20496;-72
2021/05/27 07:27:24;;;;;;;1.08;0.60;;;10.90;59.50;;;;;;4995938;28;20022;-72
2021/05/27 07:29:53;;;;;;;3.88;0.90;;;10.70;59.40;;;;;;5010662;28;20029;-72
2021/05/27 07:32:19;;;;;;;3.03;0.80;;;10.60;60.00;;;;;;5012797;28;20382;-72
2021/05/27 07:34:45;;;;;;;9.23;1.25;;;10.60;59.20;;;;;;5015135;28;20268;-72
2021/05/27 07:37:12;;;;;;;3.97;0.88;;;10.50;59.80;;;;;;5014951;28;20061;-73
2021/05/27 07:39:38;;;;;;;3.80;1.27;;;10.50;59.50;;;;;;5015370;28;20076;-72
2021/05/27 07:42:06;;;;;;;2.63;0.80;;;10.30;59.70;;;;;;5015588;28;20029;-73
2021/05/27 07:44:35;;;;;;;2.20;0.90;;;10.10;60.00;;;;;;5015302;28;20022;-72
2021/05/27 07:47:01;;;;;;;3.60;0.93;;;10.00;60.10;;;;;;4997851;28;20026;-71
2021/05/27 07:49:28;;;;;;;2.22;1.00;;;10.10;60.20;;;;;;5015512;28;20041;-78
2021/05/27 07:51:57;;;;;;;5.43;0.80;;;10.20;59.80;;;;;;5015365;28;20045;-71
2021/05/27 07:54:24;;;;;;;5.32;0.88;;;10.30;59.80;;;;;;5015424;28;20474;-71
2021/05/27 07:56:50;;;;;;;1.88;1.00;;;10.30;60.50;;;;;;5015536;28;20056;-72
2021/05/27 07:59:16;;;;;;;8.43;0.82;;;10.50;61.00;;;;;;5015107;28;20026;-71
2021/05/27 08:01:43;;;;;;;1.83;0.70;;;10.20;58.90;;;;;;5015072;28;20032;-71
2021/05/27 08:04:09;;;;;;;2.95;0.70;;;10.00;59.10;;;;;;5015105;28;20022;-71
2021/05/27 08:06:35;;;;;;;2.92;0.93;;;10.20;61.00;;;;;;5014667;28;20145;-70
2021/05/27 08:09:02;;;;;;;2.80;1.00;;;10.30;60.30;;;;;;5014545;28;20068;-73
2021/05/27 08:11:28;;;;;;;0.85;0.70;;;10.30;59.30;;;;;;5014802;28;20057;-73
2021/05/27 08:13:54;;;;;;;0.55;0.55;;;10.10;59.00;;;;;;5014879;28;20053;-73
2021/05/27 08:16:19;;;;;;;2.65;0.93;;;10.00;57.90;;;;;;5014746;28;20034;-73
2021/05/27 08:18:45;;;;;;;1.55;0.70;;;9.90;59.50;;;;;;5014890;28;20057;-72
2021/05/27 08:21:11;;;;;;;1.92;0.80;;;9.80;59.60;;;;;;5014745;28;20038;-72
2021/05/27 08:23:37;;;;;;;2.58;0.98;;;9.70;59.10;;;;;;5013891;28;20386;-72
2021/05/27 08:26:03;;;;;;;4.03;1.67;;;9.60;59.90;;;;;;4997158;28;20026;-72
2021/05/27 08:28:29;;;;;;;0.75;0.60;;;9.70;59.40;;;;;;5014594;28;20033;-72
2021/05/27 08:30:55;;;;;;;4.70;0.85;;;9.80;61.00;;;;;;5015000;28;20025;-72
2021/05/27 08:33:21;;;;;;;1.25;0.90;;;10.00;60.80;;;;;;5014555;28;20382;-72
2021/05/27 08:35:47;;;;;;;2.40;0.70;;;9.70;60.00;;;;;;5014618;28;20354;-70
2021/05/27 08:38:13;;;;;;;3.40;1.00;;;9.60;60.70;;;;;;4996936;28;20457;-70
2021/05/27 08:40:39;;;;;;;2.70;0.85;;;9.60;61.00;;;;;;5014288;28;20124;-69
2021/05/27 08:43:05;;;;;;;1.92;0.82;;;9.50;61.20;;;;;;5014459;28;20381;-68
2021/05/27 08:45:34;;;;;;;1.35;0.80;;;9.50;61.70;;;;;;5014277;28;20485;-69
2021/05/27 08:48:00;;;;;;;12.00;1.05;;;9.60;60.90;;;;;;5014621;28;20066;-68
2021/05/27 08:50:35;;;;;;;2.55;1.00;;;9.70;60.00;;;;;;5014305;28;20053;-69
2021/05/27 08:53:02;;;;;;;9.73;1.08;;;9.70;59.90;;;;;;5014201;28;20490;-69
2021/05/27 08:55:28;;;;;;;4.40;0.88;;;9.60;59.50;;;;;;5014117;28;20036;-69
2021/05/27 08:57:53;;;;;;;0.60;0.60;;;9.60;59.60;;;;;;5014107;28;20018;-69
2021/05/27 09:00:20;;;;;;;7.47;1.13;;;9.60;59.90;;;;;;5014120;28;20038;-69
2021/05/27 09:02:56;;;;;;;3.67;0.90;;;9.40;60.00;;;;;;5013970;28;20065;-69
2021/05/27 09:05:24;;;;;;;11.60;1.13;;;9.30;61.40;;;;;;5014322;28;20072;-68
2021/05/27 09:07:50;;;;;;;2.75;0.88;;;9.10;59.50;;;;;;5014223;28;20552;-69
2021/05/27 09:10:16;;;;;;;7.22;0.95;;;8.90;60.40;;;;;;5014136;28;20034;-69
2021/05/27 09:12:42;;;;;;;16.10;1.75;;;8.80;61.00;;;;;;5013724;28;20126;-69
2021/05/27 09:15:17;;;;;;;3.20;0.80;;;8.90;61.50;;;;;;5013624;28;20026;-69
2021/05/27 09:17:45;;;;;;;17.35;1.05;;;9.00;61.80;;;;;;5013737;28;20045;-69
2021/05/27 09:20:16;;;;;;;3.17;0.85;;;9.00;61.30;;;;;;5013446;28;20038;-70
2021/05/27 09:22:42;;;;;;;2.63;0.65;;;9.00;61.20;;;;;;5013430;28;20121;-69
2021/05/27 09:25:28;;;;;;;4.55;0.80;;;9.00;61.80;;;;;;5013495;28;20025;-70
2021/05/27 09:27:55;;;;;;;56.40;5.78;;;8.90;61.00;;;;;;5013333;28;20057;-70
2021/05/27 09:30:22;;;;;;;3.05;0.70;;;8.90;61.50;;;;;;5013405;28;20077;-71
2021/05/27 09:32:49;;;;;;;6.50;1.27;;;9.00;61.70;;;;;;5013037;28;20066;-68
2021/05/27 09:35:16;;;;;;;8.52;0.90;;;8.90;60.40;;;;;;5012581;28;20018;-68
2021/05/27 09:37:50;;;;;;;2.88;0.75;;;8.80;61.90;;;;;;5012393;28;20046;-69
2021/05/27 09:40:44;;;;;;;4.35;1.63;;;8.70;61.80;;;;;;5012839;28;20033;-69
2021/05/27 09:43:11;;;;;;;1.25;0.70;;;8.60;61.80;;;;;;5005715;28;20064;-73
2021/05/27 09:45:39;;;;;;;6.05;1.48;;;8.50;61.90;;;;;;5011943;28;20026;-68
2021/05/27 09:48:24;;;;;;;10.70;1.10;;;8.60;62.10;;;;;;5012608;28;20079;-70
2021/05/27 09:50:54;;;;;;;1.45;0.90;;;8.60;62.00;;;;;;5014194;28;20022;-70
2021/05/27 09:53:22;;;;;;;2.60;0.70;;;8.70;63.90;;;;;;5012884;28;20072;-69
2021/05/27 09:55:48;;;;;;;1.40;0.85;;;8.80;63.30;;;;;;5012257;28;20742;-69
2021/05/27 09:58:16;;;;;;;2.22;0.88;;;8.90;63.30;;;;;;5012973;28;20168;-69
2021/05/27 10:00:43;;;;;;;1.55;0.70;;;8.70;62.20;;;;;;5012952;28;20413;-70
2021/05/27 10:03:25;;;;;;;1.05;0.75;;;8.70;63.40;;;;;;5012818;28;20473;-70
2021/05/27 10:05:52;;;;;;;4.60;0.80;;;8.70;63.30;;;;;;5013208;28;20030;-69
2021/05/27 10:08:21;;;;;;;1.55;0.60;;;8.80;64.50;;;;;;5012422;28;20029;-69
2021/05/27 10:10:51;;;;;;;2.10;0.93;;;8.80;63.00;;;;;;5012606;28;20026;-69
2021/05/27 10:13:21;;;;;;;28.15;1.50;;;8.70;64.20;;;;;;5012993;28;20037;-69
2021/05/27 10:15:47;;;;;;;1.33;0.90;;;8.70;64.00;;;;;;5012884;28;20033;-70
2021/05/27 10:18:21;;;;;;;7.25;1.10;;;8.70;63.10;;;;;;5012595;28;20030;-71
2021/05/27 10:20:49;;;;;;;4.15;0.90;;;8.70;62.10;;;;;;5012448;28;20172;-71
2021/05/27 10:23:16;;;;;;;4.72;0.80;;;8.50;62.70;;;;;;5012803;28;20022;-70
2021/05/27 10:25:43;;;;;;;4.32;1.08;;;8.60;64.60;;;;;;5012617;28;20029;-70
2021/05/27 10:28:11;;;;;;;1.42;0.65;;;8.70;64.00;;;;;;5012421;28;20026;-70
2021/05/27 10:30:43;;;;;;;2.35;1.15;;;8.70;62.40;;;;;;4994761;28;20018;-70
2021/05/27 10:33:17;;;;;;;1.77;0.85;;;8.60;62.30;;;;;;5012428;28;20054;-70
2021/05/27 10:35:54;;;;;;;0.73;0.70;;;8.60;63.40;;;;;;5012163;28;20109;-70
2021/05/27 10:38:41;;;;;;;4.82;0.90;;;8.70;63.20;;;;;;5012238;28;20452;-70
2021/05/27 10:41:06;;;;;;;0.77;0.75;;;8.60;62.70;;;;;;5012259;28;20476;-71
2021/05/27 10:43:33;;;;;;;1.63;0.90;;;8.70;62.90;;;;;;5012360;28;20108;-69
2021/05/27 10:46:11;;;;;;;2.33;0.70;;;8.70;62.80;;;;;;5012185;28;20026;-72
2021/05/27 10:48:45;;;;;;;2.85;0.90;;;8.70;62.60;;;;;;5012109;28;20061;-72
2021/05/27 10:51:45;;;;;;;2.50;0.80;;;8.70;63.40;;;;;;5012342;28;20500;-69
2021/05/27 10:54:28;;;;;;;0.90;0.60;;;8.80;63.10;;;;;;5012162;28;20026;-69
2021/05/27 10:56:54;;;;;;;0.63;0.60;;;8.70;62.40;;;;;;5011827;28;20494;-69
2021/05/27 10:59:20;;;;;;;1.05;0.80;;;8.80;62.80;;;;;;5011668;28;20132;-69
2021/05/27 11:01:46;;;;;;;2.17;0.80;;;8.80;61.90;;;;;;5011760;28;20026;-68
2021/05/27 11:04:33;;;;;;;2.38;0.80;;;8.80;62.30;;;;;;5012323;28;20504;-69
2021/05/27 11:07:24;;;;;;;2.40;0.80;;;8.80;61.00;;;;;;5012014;28;20113;-69
2021/05/27 11:09:51;;;;;;;1.45;0.73;;;8.80;64.20;;;;;;5009482;28;20156;-69
2021/05/27 11:12:25;;;;;;;8.38;0.85;;;8.80;61.90;;;;;;5011813;28;20076;-69
2021/05/27 11:14:54;;;;;;;2.05;0.82;;;8.90;62.90;;;;;;5011972;28;20026;-70
2021/05/27 11:17:24;;;;;;;1.63;0.88;;;9.00;63.00;;;;;;5012213;28;20026;-69
2021/05/27 11:20:04;;;;;;;1.48;0.77;;;9.30;65.60;;;;;;5011865;28;20034;-69
2021/05/27 11:25:25;;;;;;;2.97;0.80;;;9.30;61.50;;;;;;5011945;28;20377;-71
2021/05/27 11:28:21;;;;;;;1.75;0.60;;;9.30;60.10;;;;;;5003527;28;20394;-71
2021/05/27 11:30:52;;;;;;;2.00;0.63;;;9.30;59.30;;;;;;5011619;28;20395;-71
2021/05/27 11:33:27;;;;;;;1.00;0.60;;;9.40;60.30;;;;;;5012101;28;20037;-71
2021/05/27 11:35:56;;;;;;;1.95;0.80;;;9.50;60.30;;;;;;5011560;28;20018;-71
2021/05/27 11:38:28;;;;;;;1.33;0.50;;;9.50;59.60;;;;;;5011881;28;20080;-71
2021/05/27 11:41:07;;;;;;;2.17;0.80;;;9.40;57.40;;;;;;5011601;28;20037;-71
2021/05/27 11:43:38;;;;;;;1.10;0.60;;;9.30;57.30;;;;;;5011653;28;20044;-71
2021/05/27 11:46:16;;;;;;;1.38;0.80;;;9.20;58.30;;;;;;4994218;28;20490;-72
2021/05/27 11:51:22;;;;;;;3.85;0.70;;;9.20;59.40;;;;;;5012050;28;20077;-72
2021/05/27 11:53:57;;;;;;;2.90;0.80;;;9.30;58.60;;;;;;5011506;28;20022;-72
2021/05/27 11:56:34;;;;;;;1.00;0.70;;;9.30;58.40;;;;;;5011768;28;20168;-72
2021/05/27 11:59:00;;;;;;;3.53;0.80;;;9.30;57.60;;;;;;5014559;28;20118;-75
2021/05/27 12:01:28;;;;;;;16.15;1.10;;;9.40;58.70;;;;;;5014870;28;20034;-74
2021/05/27 12:04:04;;;;;;;15.27;1.35;;;9.40;57.10;;;;;;5011832;28;20030;-74
2021/05/27 12:06:51;;;;;;;1.48;0.57;;;9.90;68.70;;;;;;5015027;28;20041;-73
2021/05/27 12:09:34;;;;;;;0.80;0.60;;;10.60;58.40;;;;;;4996868;28;20041;-69
2021/05/27 12:12:26;;;;;;;3.50;0.88;;;10.40;56.40;;;;;;5014851;28;20037;-69
2021/05/27 12:15:05;;;;;;;29.15;2.63;;;10.00;55.10;;;;;;5014743;28;20089;-70
2021/05/27 12:17:37;;;;;;;2.85;0.70;;;9.80;54.30;;;;;;5015035;28;20034;-69
2021/05/27 12:20:17;;;;;;;17.45;1.20;;;9.70;55.40;;;;;;5014643;28;20033;-69
2021/05/27 12:22:55;;;;;;;1.55;0.80;;;9.70;56.40;;;;;;5014645;28;20034;-69
2021/05/27 12:25:24;;;;;;;0.60;0.60;;;9.80;56.20;;;;;;5014837;28;20018;-69
2021/05/27 12:27:52;;;;;;;3.45;0.77;;;9.70;55.20;;;;;;5014872;28;20153;-68
2021/05/27 12:30:21;;;;;;;1.95;0.63;;;10.00;61.10;;;;;;5014945;28;20056;-69
2021/05/27 12:32:50;;;;;;;1.08;0.65;;;10.30;57.30;;;;;;5014535;28;20470;-69
2021/05/27 12:35:20;;;;;;;1.65;0.68;;;10.10;54.00;;;;;;5014430;28;20037;-69
2021/05/27 12:37:47;;;;;;;4.45;0.77;;;10.00;55.20;;;;;;4996884;28;20080;-67
2021/05/27 12:40:28;;;;;;;4.43;0.90;;;10.00;57.50;;;;;;5014403;28;20038;-69
2021/05/27 12:42:56;;;;;;;9.10;1.40;;;10.10;55.50;;;;;;5014410;28;20477;-69
2021/05/27 12:45:27;;;;;;;6.07;0.88;;;10.10;55.50;;;;;;5014435;28;20037;-66
2021/05/27 12:48:04;;;;;;;0.50;0.50;;;10.40;67.60;;;;;;5014313;28;20104;-69
2021/05/27 12:50:30;;;;;;;1.90;0.75;;;11.10;56.30;;;;;;5014389;28;20385;-69
2021/05/27 12:52:56;;;;;;;5.22;0.77;;;10.80;54.40;;;;;;5014263;28;20029;-69
2021/05/27 12:55:28;;;;;;;2.17;0.60;;;10.80;56.30;;;;;;5014229;28;20030;-70
2021/05/27 12:57:56;;;;;;;5.40;1.08;;;10.60;53.60;;;;;;5013613;28;20057;-70
2021/05/27 13:00:23;;;;;;;0.55;0.55;;;10.30;52.80;;;;;;5010824;28;20029;-69
2021/05/27 13:03:06;;;;;;;1.60;0.80;;;10.10;54.10;;;;;;5013419;28;20022;-71
2021/05/27 13:05:33;;;;;;;2.22;0.68;;;10.00;53.60;;;;;;5012151;28;20037;-72
2021/05/27 13:08:03;;;;;;;2.28;0.70;;;10.00;53.50;;;;;;5013271;28;20014;-76
2021/05/27 13:10:39;;;;;;;0.85;0.60;;;10.00;53.90;;;;;;5013664;28;20049;-76
2021/05/27 13:13:07;;;;;;;23.45;1.33;;;10.00;52.80;;;;;;5011181;28;20088;-75
2021/05/27 13:15:44;;;;;;;1.52;0.70;;;9.90;53.20;;;;;;5012941;28;20029;-73
2021/05/27 13:18:12;;;;;;;1.90;0.60;;;9.90;53.10;;;;;;5011719;28;20049;-73